createdAt,value
2019-02-02T00:01:20.415Z,1.07
2019-02-02T00:04:08.737Z,1.00
2019-02-02T00:06:58.575Z,0.90
2019-02-02T00:09:47.952Z,0.93
2019-02-02T00:12:36.894Z,0.87
2019-02-02T00:15:24.783Z,0.92
2019-02-02T00:18:13.184Z,0.89
2019-02-02T00:21:01.428Z,0.87
2019-02-02T00:23:50.122Z,0.85
2019-02-02T00:26:38.625Z,0.93
2019-02-02T00:29:26.722Z,0.97
2019-02-02T00:32:15.537Z,0.83
2019-02-02T00:35:04.406Z,0.82
2019-02-02T00:37:52.672Z,0.90
2019-02-02T00:40:41.247Z,0.90
2019-02-02T00:43:30.263Z,1.00
2019-02-02T00:46:19.070Z,1.01
2019-02-02T00:49:08.489Z,1.02
2019-02-02T00:51:56.829Z,1.00
2019-02-02T00:54:45.708Z,1.03
2019-02-02T00:57:34.396Z,1.03
2019-02-02T01:00:22.843Z,0.94
2019-02-02T01:03:11.123Z,1.01
2019-02-02T01:06:00.378Z,1.06
2019-02-02T01:08:48.821Z,1.00
2019-02-02T01:11:37.174Z,0.97
2019-02-02T01:14:27.030Z,0.88
2019-02-02T01:17:15.622Z,0.87
2019-02-02T01:20:05.138Z,0.65
2019-02-02T01:22:54.016Z,0.72
2019-02-02T01:25:43.283Z,0.81
2019-02-02T01:28:31.933Z,0.73
2019-02-02T01:31:21.283Z,0.77
2019-02-02T01:34:09.622Z,0.89
2019-02-02T01:36:57.869Z,0.92
2019-02-02T01:39:46.473Z,0.96
2019-02-02T01:42:35.655Z,0.98
2019-02-02T01:45:25.432Z,1.01
2019-02-02T01:48:14.697Z,1.03
2019-02-02T01:51:03.593Z,1.05
2019-02-02T01:53:52.202Z,1.02
2019-02-02T01:56:40.780Z,1.06
2019-02-02T01:59:29.458Z,0.88
2019-02-02T02:02:18.432Z,0.99
2019-02-02T02:05:08.053Z,1.14
2019-02-02T02:07:57.659Z,1.15
2019-02-02T02:10:47.046Z,1.19
2019-02-02T02:13:35.584Z,1.15
2019-02-02T02:16:24.451Z,1.01
2019-02-02T02:19:13.742Z,1.07
2019-02-02T02:22:02.495Z,1.03
2019-02-02T02:24:53.508Z,1.07
2019-02-02T02:27:42.075Z,0.95
2019-02-02T02:30:31.120Z,0.81
2019-02-02T02:33:20.531Z,0.73
2019-02-02T02:36:09.483Z,0.91
2019-02-02T02:38:58.150Z,0.96
2019-02-02T02:41:46.469Z,0.89
2019-02-02T02:44:35.161Z,1.01
2019-02-02T02:47:23.777Z,1.04
2019-02-02T02:50:13.994Z,1.06
2019-02-02T02:53:02.838Z,1.02
2019-02-02T02:55:51.724Z,0.90
2019-02-02T02:58:41.916Z,0.92
2019-02-02T03:01:30.337Z,1.02
2019-02-02T03:04:19.398Z,1.04
2019-02-02T03:07:08.126Z,0.98
2019-02-02T03:09:56.810Z,1.01
2019-02-02T03:12:45.299Z,1.07
2019-02-02T03:15:34.013Z,1.12
2019-02-02T03:18:24.034Z,1.05
2019-02-02T03:21:12.249Z,1.05
2019-02-02T03:24:00.079Z,1.18
2019-02-02T03:26:48.589Z,1.13
2019-02-02T03:29:37.426Z,1.20
2019-02-02T03:32:26.105Z,1.01
2019-02-02T03:35:15.822Z,1.01
2019-02-02T03:38:04.816Z,1.14
2019-02-02T03:40:53.973Z,1.20
2019-02-02T03:43:42.996Z,1.20
2019-02-02T03:46:31.627Z,1.31
2019-02-02T03:49:19.496Z,1.36
2019-02-02T03:52:08.005Z,1.38
2019-02-02T03:54:56.622Z,1.38
2019-02-02T03:57:45.369Z,1.48
2019-02-02T04:00:34.073Z,1.49
2019-02-02T04:03:22.386Z,1.43
2019-02-02T04:06:11.364Z,1.30
2019-02-02T04:08:59.983Z,1.33
2019-02-02T04:11:49.060Z,1.38
2019-02-02T04:14:37.310Z,1.33
2019-02-02T04:17:25.385Z,1.20
2019-02-02T04:20:18.688Z,1.24
2019-02-02T04:23:07.250Z,1.33
2019-02-02T04:25:58.438Z,1.24
2019-02-02T04:28:47.302Z,1.34
2019-02-02T04:31:35.963Z,1.43
2019-02-02T04:34:24.759Z,1.38
2019-02-02T04:37:14.057Z,1.46
2019-02-02T04:40:03.105Z,1.53
2019-02-02T04:42:51.663Z,1.53
2019-02-02T04:45:39.756Z,1.54
2019-02-02T04:48:32.409Z,1.56
2019-02-02T04:51:19.382Z,1.54
2019-02-02T04:54:08.110Z,1.24
2019-02-02T04:56:56.327Z,1.38
2019-02-02T04:59:44.699Z,1.38
2019-02-02T05:02:33.652Z,1.40
2019-02-02T05:05:22.006Z,1.40
2019-02-02T05:08:10.967Z,1.30
2019-02-02T05:10:59.464Z,1.39
2019-02-02T05:13:48.553Z,1.33
2019-02-02T05:16:37.310Z,1.10
2019-02-02T05:19:26.672Z,1.03
2019-02-02T05:22:15.218Z,1.01
2019-02-02T05:25:05.035Z,1.12
2019-02-02T05:27:54.043Z,1.03
2019-02-02T05:30:42.453Z,1.11
2019-02-02T05:33:32.117Z,1.19
2019-02-02T05:36:20.491Z,1.13
2019-02-02T05:39:09.953Z,1.27
2019-02-02T05:41:58.561Z,1.15
2019-02-02T05:44:47.046Z,0.99
2019-02-02T05:47:35.753Z,1.00
2019-02-02T05:50:23.878Z,0.92
2019-02-02T05:53:13.276Z,0.92
2019-02-02T05:56:01.913Z,0.91
2019-02-02T05:58:50.755Z,0.98
2019-02-02T06:01:39.085Z,0.98
2019-02-02T06:04:26.986Z,0.98
2019-02-02T06:07:16.166Z,0.97
2019-02-02T06:10:04.493Z,1.07
2019-02-02T06:12:52.824Z,1.10
2019-02-02T06:15:41.686Z,1.17
2019-02-02T06:18:30.598Z,1.25
2019-02-02T06:21:18.963Z,1.25
2019-02-02T06:24:07.601Z,1.20
2019-02-02T06:26:56.971Z,1.25
2019-02-02T06:29:45.846Z,1.29
2019-02-02T06:32:34.014Z,1.29
2019-02-02T06:35:22.738Z,1.44
2019-02-02T06:38:11.129Z,1.40
2019-02-02T06:41:00.284Z,1.45
2019-02-02T06:43:49.337Z,1.52
2019-02-02T06:46:43.753Z,1.71
2019-02-02T06:49:28.038Z,1.71
2019-02-02T06:52:17.067Z,1.80
2019-02-02T06:55:06.413Z,1.83
2019-02-02T06:57:55.885Z,1.83
2019-02-02T07:00:44.607Z,2.05
2019-02-02T07:03:33.401Z,2.05
2019-02-02T07:06:23.348Z,2.19
2019-02-02T07:09:12.046Z,2.17
2019-02-02T07:12:01.026Z,2.30
2019-02-02T07:14:50.104Z,2.26
2019-02-02T07:17:39.247Z,2.34
2019-02-02T07:20:28.849Z,2.37
2019-02-02T07:23:17.092Z,2.37
2019-02-02T07:26:05.895Z,2.44
2019-02-02T07:28:55.127Z,2.44
2019-02-02T07:31:44.531Z,2.05
2019-02-02T07:34:33.486Z,1.87
2019-02-02T07:37:22.129Z,1.87
2019-02-02T07:40:12.321Z,1.94
2019-02-02T07:43:00.664Z,1.94
2019-02-02T07:45:49.814Z,2.02
2019-02-02T07:48:38.600Z,2.14
2019-02-02T07:51:27.185Z,2.23
2019-02-02T07:54:16.430Z,2.32
2019-02-02T07:57:05.547Z,2.27
2019-02-02T07:59:55.267Z,2.21
2019-02-02T08:02:44.153Z,2.22
2019-02-02T08:05:32.555Z,2.42
2019-02-02T08:08:21.393Z,2.42
2019-02-02T08:11:09.942Z,2.37
2019-02-02T08:14:03.465Z,2.52
2019-02-02T08:16:52.667Z,2.49
2019-02-02T08:19:41.650Z,2.63
2019-02-02T08:22:29.724Z,2.67
2019-02-02T08:25:17.876Z,2.79
2019-02-02T08:28:07.031Z,2.59
2019-02-02T08:30:56.215Z,2.71
2019-02-02T08:33:45.501Z,2.77
2019-02-02T08:36:34.463Z,2.85
2019-02-02T08:39:29.207Z,2.76
2019-02-02T08:42:14.507Z,2.94
2019-02-02T08:45:04.284Z,2.85
2019-02-02T08:47:52.575Z,2.76
2019-02-02T08:50:42.472Z,2.82
2019-02-02T08:53:31.869Z,2.90
2019-02-02T08:56:20.394Z,3.05
2019-02-02T08:59:10.230Z,3.12
2019-02-02T09:01:59.237Z,3.21
2019-02-02T09:04:48.002Z,3.16
2019-02-02T09:07:38.449Z,3.36
2019-02-02T09:10:29.419Z,3.40
2019-02-02T09:13:19.062Z,3.48
2019-02-02T09:16:09.247Z,3.42
2019-02-02T09:18:58.102Z,3.57
2019-02-02T09:21:47.269Z,3.64
2019-02-02T09:24:36.055Z,3.76
2019-02-02T09:27:24.995Z,3.87
2019-02-02T09:30:22.555Z,3.84
2019-02-02T09:33:11.085Z,3.81
2019-02-02T09:36:00.554Z,3.97
2019-02-02T09:38:51.044Z,4.06
2019-02-02T09:41:40.914Z,4.13
2019-02-02T09:44:31.802Z,4.24
2019-02-02T09:47:20.776Z,4.04
2019-02-02T09:50:11.554Z,3.97
2019-02-02T09:53:02.455Z,4.01
2019-02-02T09:55:51.216Z,4.13
2019-02-02T09:58:40.031Z,4.02
2019-02-02T10:01:28.782Z,4.39
2019-02-02T10:04:17.512Z,4.46
2019-02-02T10:07:06.170Z,4.52
2019-02-02T10:09:54.563Z,4.71
2019-02-02T10:12:42.970Z,4.70
2019-02-02T10:15:31.305Z,4.83
2019-02-02T10:18:20.436Z,4.70
2019-02-02T10:21:14.905Z,4.85
2019-02-02T10:24:03.604Z,4.92
2019-02-02T10:26:52.455Z,4.80
2019-02-02T10:29:40.747Z,5.18
2019-02-02T10:32:29.459Z,5.17
2019-02-02T10:35:18.194Z,5.45
2019-02-02T10:38:06.873Z,5.52
2019-02-02T10:40:55.708Z,5.62
2019-02-02T10:43:43.725Z,5.85
2019-02-02T10:46:32.791Z,5.93
2019-02-02T10:49:21.328Z,6.28
2019-02-02T10:52:10.490Z,6.22
2019-02-02T10:54:58.689Z,6.44
2019-02-02T10:57:47.191Z,6.31
2019-02-02T11:00:37.522Z,6.12
2019-02-02T11:03:25.591Z,6.06
2019-02-02T11:06:13.665Z,6.04
2019-02-02T11:09:02.342Z,6.12
2019-02-02T11:11:50.493Z,6.41
2019-02-02T11:14:39.440Z,6.76
2019-02-02T11:17:27.880Z,6.69
2019-02-02T11:20:18.685Z,6.62
2019-02-02T11:23:07.443Z,6.49
2019-02-02T11:25:55.904Z,6.44
2019-02-02T11:28:43.928Z,6.32
2019-02-02T11:31:33.123Z,6.11
2019-02-02T11:34:21.428Z,6.06
2019-02-02T11:37:10.208Z,6.15
2019-02-02T11:39:58.682Z,6.09
2019-02-02T11:42:47.845Z,6.32
2019-02-02T11:45:36.270Z,6.39
2019-02-02T11:48:25.396Z,6.45
2019-02-02T11:51:14.018Z,6.46
2019-02-02T11:54:02.546Z,6.42
2019-02-02T11:56:51.248Z,6.29
2019-02-02T11:59:39.626Z,6.14
2019-02-02T12:02:28.614Z,6.18
2019-02-02T12:05:18.405Z,6.21
2019-02-02T12:08:07.294Z,6.17
2019-02-02T12:10:56.969Z,6.07
2019-02-02T12:13:45.091Z,6.21
2019-02-02T12:16:35.526Z,6.41
2019-02-02T12:19:25.188Z,6.44
2019-02-02T12:22:14.102Z,6.74
2019-02-02T12:25:03.748Z,6.75
2019-02-02T12:31:07.158Z,6.31
2019-02-02T12:34:04.926Z,6.19
2019-02-02T12:36:54.574Z,6.38
2019-02-02T12:39:46.794Z,6.82
2019-02-02T12:42:36.773Z,6.74
2019-02-02T12:45:35.853Z,6.80
2019-02-02T12:48:46.853Z,6.59
2019-02-02T12:51:35.498Z,6.40
2019-02-02T12:54:24.746Z,6.83
2019-02-02T12:57:14.445Z,6.30
2019-02-02T13:00:03.315Z,6.95
2019-02-02T13:02:52.789Z,7.40
2019-02-02T13:05:41.754Z,7.25
2019-02-02T13:08:30.712Z,7.06
2019-02-02T13:11:19.997Z,7.00
2019-02-02T13:14:10.571Z,6.87
2019-02-02T13:16:59.982Z,6.88
2019-02-02T13:19:54.644Z,6.47
2019-02-02T13:22:44.276Z,6.54
2019-02-02T13:25:32.990Z,6.58
2019-02-02T13:28:21.586Z,6.41
2019-02-02T13:31:09.816Z,6.29
2019-02-02T13:33:58.179Z,6.64
2019-02-02T13:36:48.445Z,6.92
2019-02-02T13:39:36.990Z,6.46
2019-02-02T13:42:25.832Z,6.12
2019-02-02T13:45:16.285Z,6.08
2019-02-02T13:48:05.216Z,6.21
2019-02-02T13:50:54.737Z,6.11
2019-02-02T13:53:43.557Z,6.41
2019-02-02T13:56:35.187Z,6.86
2019-02-02T13:59:24.147Z,6.72
2019-02-02T14:05:25.946Z,7.55
2019-02-02T14:08:14.800Z,7.73
2019-02-02T14:11:03.599Z,7.85
2019-02-02T14:13:52.708Z,7.42
2019-02-02T14:16:41.767Z,7.01
2019-02-02T14:19:30.123Z,7.18
2019-02-02T14:22:18.817Z,6.17
2019-02-02T14:25:07.981Z,6.58
2019-02-02T14:27:58.002Z,6.23
2019-02-02T14:30:47.282Z,6.24
2019-02-02T14:33:35.832Z,6.31
2019-02-02T14:36:24.581Z,6.51
2019-02-02T14:39:13.027Z,6.95
2019-02-02T14:42:01.334Z,7.22
2019-02-02T14:44:50.166Z,7.21
2019-02-02T14:47:38.600Z,7.40
2019-02-02T14:50:26.854Z,7.28
2019-02-02T14:53:16.641Z,7.39
2019-02-02T14:56:09.711Z,7.48
2019-02-02T14:58:58.996Z,7.43
2019-02-02T15:02:06.574Z,7.39
2019-02-02T15:04:55.158Z,7.26
2019-02-02T15:07:44.077Z,7.11
2019-02-02T15:10:33.442Z,7.09
2019-02-02T15:13:29.385Z,7.01
2019-02-02T15:16:17.546Z,6.90
2019-02-02T15:19:06.488Z,6.77
2019-02-02T15:21:54.565Z,6.72
2019-02-02T15:24:42.437Z,6.49
2019-02-02T15:27:31.459Z,6.35
2019-02-02T15:30:20.931Z,6.15
2019-02-02T15:33:09.021Z,5.78
2019-02-02T15:35:57.774Z,5.54
2019-02-02T15:38:49.868Z,5.54
2019-02-02T15:41:38.529Z,5.67
2019-02-02T15:44:27.313Z,5.61
2019-02-02T15:47:16.420Z,5.36
2019-02-02T15:50:18.391Z,5.36
2019-02-02T15:53:06.929Z,5.33
2019-02-02T15:55:55.924Z,5.25
2019-02-02T15:58:45.260Z,5.10
2019-02-02T16:01:33.702Z,5.06
2019-02-02T16:04:22.165Z,4.93
2019-02-02T16:07:11.431Z,4.92
2019-02-02T16:10:00.767Z,4.83
2019-02-02T16:12:55.596Z,4.77
2019-02-02T16:15:49.666Z,4.67
2019-02-02T16:18:44.182Z,4.55
2019-02-02T16:24:33.777Z,4.32
2019-02-02T16:27:21.998Z,4.26
2019-02-02T16:30:12.932Z,4.20
2019-02-02T16:33:01.272Z,4.15
2019-02-02T16:35:50.238Z,4.06
2019-02-02T16:38:39.439Z,4.02
2019-02-02T16:41:30.286Z,4.00
2019-02-02T16:44:22.037Z,3.94
2019-02-02T16:47:12.303Z,3.94
2019-02-02T16:50:01.916Z,3.94
2019-02-02T16:52:51.809Z,3.90
2019-02-02T16:55:42.588Z,3.87
2019-02-02T16:58:32.590Z,3.98
2019-02-02T17:01:21.496Z,3.96
2019-02-02T17:04:15.844Z,3.97
2019-02-02T17:07:06.136Z,3.99
2019-02-02T17:09:55.965Z,4.01
2019-02-02T17:12:46.562Z,4.04
2019-02-02T17:15:38.937Z,4.05
2019-02-02T17:18:27.968Z,4.03
2019-02-02T17:21:18.334Z,4.07
2019-02-02T17:24:09.520Z,4.16
2019-02-02T17:26:58.879Z,4.16
2019-02-02T17:29:48.477Z,4.10
2019-02-02T17:32:38.213Z,4.05
2019-02-02T17:35:28.255Z,4.04
2019-02-02T17:38:18.660Z,4.05
2019-02-02T17:41:09.373Z,4.11
2019-02-02T17:43:59.912Z,4.10
2019-02-02T17:46:48.988Z,4.07
2019-02-02T17:49:38.596Z,4.08
2019-02-02T17:52:27.977Z,3.89
2019-02-02T17:55:21.184Z,3.85
2019-02-02T17:58:13.341Z,3.85
2019-02-02T18:01:03.655Z,3.95
2019-02-02T18:03:56.059Z,3.96
2019-02-02T18:06:44.933Z,3.93
2019-02-02T18:09:59.280Z,3.88
2019-02-02T18:12:47.849Z,3.76
2019-02-02T18:15:35.957Z,3.75
2019-02-02T18:18:24.076Z,3.94
2019-02-02T18:21:14.211Z,3.88
2019-02-02T18:24:03.318Z,3.99
2019-02-02T18:26:52.060Z,3.88
2019-02-02T18:29:43.666Z,3.87
2019-02-02T18:32:31.918Z,3.94
2019-02-02T18:35:21.051Z,3.90
2019-02-02T18:38:09.582Z,3.94
2019-02-02T18:41:24.991Z,3.94
2019-02-02T18:44:13.964Z,3.99
2019-02-02T18:47:02.376Z,3.97
2019-02-02T18:49:51.269Z,3.96
2019-02-02T18:52:46.075Z,3.88
2019-02-02T18:55:47.040Z,3.86
2019-02-02T18:58:35.713Z,3.87
2019-02-02T19:01:24.577Z,3.89
2019-02-02T19:04:12.767Z,3.90
2019-02-02T19:07:01.277Z,3.87
2019-02-02T19:09:50.337Z,3.86
2019-02-02T19:12:38.896Z,3.84
2019-02-02T19:15:28.175Z,3.88
2019-02-02T19:18:17.930Z,3.91
2019-02-02T19:21:07.039Z,3.89
2019-02-02T19:23:56.367Z,3.87
2019-02-02T19:26:46.081Z,3.84
2019-02-02T19:29:35.144Z,3.76
2019-02-02T19:32:25.277Z,3.75
2019-02-02T19:35:16.271Z,3.77
2019-02-02T19:38:23.267Z,3.76
2019-02-02T19:41:12.541Z,3.73
2019-02-02T19:44:02.471Z,3.82
2019-02-02T19:46:51.127Z,3.76
2019-02-02T19:49:39.561Z,3.74
2019-02-02T19:52:28.161Z,3.74
2019-02-02T19:55:19.399Z,3.74
2019-02-02T19:58:07.682Z,3.73
2019-02-02T20:00:56.533Z,3.75
2019-02-02T20:03:47.392Z,3.77
2019-02-02T20:06:38.213Z,3.66
2019-02-02T20:12:34.715Z,3.71
2019-02-02T20:15:27.370Z,3.69
2019-02-02T20:18:16.116Z,3.71
2019-02-02T20:21:24.788Z,3.61
2019-02-02T20:24:13.150Z,3.47
2019-02-02T20:27:02.931Z,3.29
2019-02-02T20:29:53.819Z,3.21
2019-02-02T20:32:44.309Z,3.16
2019-02-02T20:35:40.824Z,3.12
2019-02-02T20:38:23.661Z,3.15
2019-02-02T20:41:12.731Z,2.99
2019-02-02T20:44:02.307Z,3.03
2019-02-02T20:46:55.002Z,2.96
2019-02-02T20:49:43.828Z,3.04
2019-02-02T20:52:33.113Z,3.00
2019-02-02T20:55:25.179Z,3.03
2019-02-02T20:58:14.581Z,2.98
2019-02-02T21:01:04.771Z,2.98
2019-02-02T21:03:55.342Z,2.87
2019-02-02T21:06:44.681Z,2.96
2019-02-02T21:09:33.953Z,2.94
2019-02-02T21:12:26.046Z,2.85
2019-02-02T21:15:15.247Z,2.87
2019-02-02T21:18:04.849Z,2.87
2019-02-02T21:20:54.195Z,2.95
2019-02-02T21:23:43.157Z,2.92
2019-02-02T21:26:32.391Z,2.90
2019-02-02T21:29:21.573Z,2.93
2019-02-02T21:32:10.982Z,2.85
2019-02-02T21:34:59.881Z,2.86
2019-02-02T21:37:51.858Z,2.72
2019-02-02T21:40:41.569Z,2.72
2019-02-02T21:43:30.056Z,2.68
2019-02-02T21:46:19.152Z,2.56
2019-02-02T21:49:07.874Z,2.61
2019-02-02T21:51:57.691Z,2.71
2019-02-02T21:54:47.778Z,2.75
2019-02-02T21:57:38.053Z,2.72
2019-02-02T22:00:35.861Z,2.71
2019-02-02T22:03:25.263Z,2.79
2019-02-02T22:06:15.556Z,2.76
2019-02-02T22:09:06.509Z,2.68
2019-02-02T22:11:55.732Z,2.73
2019-02-02T22:14:43.992Z,2.75
2019-02-02T22:17:32.855Z,2.75
2019-02-02T22:20:21.983Z,2.82
2019-02-02T22:23:10.924Z,2.89
2019-02-02T22:26:00.237Z,2.88
2019-02-02T22:28:49.403Z,2.79
2019-02-02T22:31:38.715Z,2.80
2019-02-02T22:34:27.298Z,2.66
2019-02-02T22:37:15.386Z,2.65
2019-02-02T22:40:05.811Z,2.61
2019-02-02T22:42:55.041Z,2.63
2019-02-02T22:45:43.893Z,2.67
2019-02-02T22:48:33.106Z,2.64
2019-02-02T22:51:23.986Z,2.62
2019-02-02T22:54:13.447Z,2.67
2019-02-02T22:57:02.067Z,2.74
2019-02-02T22:59:50.790Z,2.73
2019-02-02T23:02:38.977Z,2.75
2019-02-02T23:05:50.440Z,2.79
2019-02-02T23:09:13.209Z,2.67
2019-02-02T23:12:29.362Z,2.70
2019-02-02T23:16:04.903Z,2.63
2019-02-02T23:18:54.685Z,2.52
2019-02-02T23:21:44.052Z,2.36
2019-02-02T23:24:33.155Z,2.46
2019-02-02T23:27:22.528Z,2.33
2019-02-02T23:30:12.217Z,2.28
2019-02-02T23:33:01.421Z,2.30
2019-02-02T23:35:50.399Z,2.30
2019-02-02T23:38:39.203Z,2.30
2019-02-02T23:41:28.450Z,2.33
2019-02-02T23:44:17.653Z,2.33
2019-02-02T23:47:18.277Z,2.38
2019-02-02T23:50:07.292Z,2.38
2019-02-02T23:52:57.590Z,2.28
2019-02-02T23:55:46.881Z,2.28
2019-02-02T23:59:14.394Z,2.27
